PN42 weather

Practice Football Field
Indiana, Pennsylvania, United States

Public forecast

Using degrees Fahrenheit for public forecast. Weather courtesy of forecast.io.

Closest aviation weather report (METAR) to Practice Football Field

Closest report is Indiana County/Jimmy Stewart Fld/ Airport, 2.1 nm (3.8 km) ENE. Retrieved 2020/08/06 06:35 UTC (21 minutes ago):

KIDI 060635Z AUTO 00000KT 10SM FEW044 14/13 A3017 RMK A01

Closest aviation forecast (TAF) to Practice Football Field

Closest forecast is John Murtha Johnstown Cambria County Airport, 23.5 nm (43.5 km) SE. Retrieved 2020/08/06 06:33 UTC (23 minutes ago):

TAF KJST 060530Z 0606/0706 00000KT P6SM SKC FM061200 08005KT P6SM SCT250 FM061800 10006KT P6SM BKN035 FM070000 12005KT P6SM BKN050 FM070500 12003KT P6SM OVC015